sensor_id;sensor_type;location;lat;lon;timestamp;P1;durP1;ratioP1;P2;durP2;ratioP2
54929;SDS011;40833;53.238;6.576;2023-03-01T00:01:12;20.70;;;12.70;;
54929;SDS011;40833;53.238;6.576;2023-03-01T00:03:40;23.77;;;14.07;;
54929;SDS011;40833;53.238;6.576;2023-03-01T00:06:07;21.80;;;13.13;;
54929;SDS011;40833;53.238;6.576;2023-03-01T00:08:34;23.27;;;14.07;;
54929;SDS011;40833;53.238;6.576;2023-03-01T00:11:05;23.33;;;14.27;;
54929;SDS011;40833;53.238;6.576;2023-03-01T00:13:34;24.17;;;13.87;;
54929;SDS011;40833;53.238;6.576;2023-03-01T00:16:07;18.20;;;12.63;;
54929;SDS011;40833;53.238;6.576;2023-03-01T00:18:46;19.70;;;12.77;;
54929;SDS011;40833;53.238;6.576;2023-03-01T00:21:12;19.07;;;12.67;;
54929;SDS011;40833;53.238;6.576;2023-03-01T00:23:38;18.67;;;13.07;;
54929;SDS011;40833;53.238;6.576;2023-03-01T00:26:06;19.60;;;14.30;;
54929;SDS011;40833;53.238;6.576;2023-03-01T00:28:32;22.03;;;13.97;;
54929;SDS011;40833;53.238;6.576;2023-03-01T00:31:05;23.80;;;14.97;;
54929;SDS011;40833;53.238;6.576;2023-03-01T00:33:33;23.63;;;14.57;;
54929;SDS011;40833;53.238;6.576;2023-03-01T00:36:00;25.60;;;15.87;;
54929;SDS011;40833;53.238;6.576;2023-03-01T00:38:26;23.80;;;14.63;;
54929;SDS011;40833;53.238;6.576;2023-03-01T00:40:52;25.50;;;15.20;;
54929;SDS011;40833;53.238;6.576;2023-03-01T00:43:17;23.63;;;15.03;;
54929;SDS011;40833;53.238;6.576;2023-03-01T00:45:43;27.57;;;15.23;;
54929;SDS011;40833;53.238;6.576;2023-03-01T00:48:09;23.33;;;14.40;;
54929;SDS011;40833;53.238;6.576;2023-03-01T00:50:35;24.57;;;15.10;;
54929;SDS011;40833;53.238;6.576;2023-03-01T00:53:00;23.20;;;13.50;;
54929;SDS011;40833;53.238;6.576;2023-03-01T00:55:26;21.70;;;14.00;;
54929;SDS011;40833;53.238;6.576;2023-03-01T00:57:52;25.43;;;14.13;;
54929;SDS011;40833;53.238;6.576;2023-03-01T01:00:18;20.83;;;14.60;;
54929;SDS011;40833;53.238;6.576;2023-03-01T01:02:45;24.77;;;14.67;;
54929;SDS011;40833;53.238;6.576;2023-03-01T01:05:11;20.73;;;14.27;;
54929;SDS011;40833;53.238;6.576;2023-03-01T01:07:37;23.93;;;14.83;;
54929;SDS011;40833;53.238;6.576;2023-03-01T01:10:03;24.77;;;13.13;;
54929;SDS011;40833;53.238;6.576;2023-03-01T01:12:29;23.83;;;14.20;;
54929;SDS011;40833;53.238;6.576;2023-03-01T01:14:55;26.20;;;13.93;;
54929;SDS011;40833;53.238;6.576;2023-03-01T01:17:21;22.50;;;13.53;;
54929;SDS011;40833;53.238;6.576;2023-03-01T01:19:47;24.00;;;13.53;;
54929;SDS011;40833;53.238;6.576;2023-03-01T01:22:12;22.47;;;14.10;;
54929;SDS011;40833;53.238;6.576;2023-03-01T01:24:38;28.10;;;14.47;;
54929;SDS011;40833;53.238;6.576;2023-03-01T01:27:04;20.57;;;13.13;;
54929;SDS011;40833;53.238;6.576;2023-03-01T01:29:31;19.23;;;12.93;;
54929;SDS011;40833;53.238;6.576;2023-03-01T01:31:56;24.43;;;13.73;;
54929;SDS011;40833;53.238;6.576;2023-03-01T01:34:22;23.00;;;13.50;;
54929;SDS011;40833;53.238;6.576;2023-03-01T01:36:51;21.37;;;13.17;;
54929;SDS011;40833;53.238;6.576;2023-03-01T01:39:21;25.00;;;13.33;;
54929;SDS011;40833;53.238;6.576;2023-03-01T01:41:47;24.30;;;13.67;;
54929;SDS011;40833;53.238;6.576;2023-03-01T01:44:20;20.60;;;13.60;;
54929;SDS011;40833;53.238;6.576;2023-03-01T01:46:57;21.00;;;12.13;;
54929;SDS011;40833;53.238;6.576;2023-03-01T01:49:29;21.70;;;11.93;;
54929;SDS011;40833;53.238;6.576;2023-03-01T01:52:07;20.10;;;11.87;;
54929;SDS011;40833;53.238;6.576;2023-03-01T01:54:42;18.45;;;11.43;;
54929;SDS011;40833;53.238;6.576;2023-03-01T01:57:13;17.00;;;10.47;;
54929;SDS011;40833;53.238;6.576;2023-03-01T01:59:43;17.17;;;10.53;;
54929;SDS011;40833;53.238;6.576;2023-03-01T02:02:15;16.00;;;10.63;;
54929;SDS011;40833;53.238;6.576;2023-03-01T02:04:40;36.17;;;12.00;;
54929;SDS011;40833;53.238;6.576;2023-03-01T02:07:09;19.67;;;12.20;;
54929;SDS011;40833;53.238;6.576;2023-03-01T02:09:42;24.83;;;13.47;;
54929;SDS011;40833;53.238;6.576;2023-03-01T02:12:11;20.23;;;12.13;;
54929;SDS011;40833;53.238;6.576;2023-03-01T02:14:37;26.20;;;13.80;;
54929;SDS011;40833;53.238;6.576;2023-03-01T02:17:03;24.60;;;12.70;;
54929;SDS011;40833;53.238;6.576;2023-03-01T02:22:28;20.10;;;11.27;;
54929;SDS011;40833;53.238;6.576;2023-03-01T02:27:25;224.93;;;12.83;;
54929;SDS011;40833;53.238;6.576;2023-03-01T02:29:57;129.43;;;12.20;;
54929;SDS011;40833;53.238;6.576;2023-03-01T02:32:23;288.17;;;16.73;;
54929;SDS011;40833;53.238;6.576;2023-03-01T02:34:53;193.60;;;14.13;;
54929;SDS011;40833;53.238;6.576;2023-03-01T02:37:20;153.37;;;16.67;;
54929;SDS011;40833;53.238;6.576;2023-03-01T02:39:51;152.20;;;15.57;;
54929;SDS011;40833;53.238;6.576;2023-03-01T02:42:24;38.20;;;13.07;;
54929;SDS011;40833;53.238;6.576;2023-03-01T02:44:55;28.98;;;13.90;;
54929;SDS011;40833;53.238;6.576;2023-03-01T02:47:21;24.23;;;12.47;;
54929;SDS011;40833;53.238;6.576;2023-03-01T02:49:47;21.43;;;11.47;;
54929;SDS011;40833;53.238;6.576;2023-03-01T02:55:35;15.02;;;9.77;;
54929;SDS011;40833;53.238;6.576;2023-03-01T02:58:02;15.73;;;9.60;;
54929;SDS011;40833;53.238;6.576;2023-03-01T03:00:29;18.00;;;9.73;;
54929;SDS011;40833;53.238;6.576;2023-03-01T03:02:59;15.37;;;9.57;;
54929;SDS011;40833;53.238;6.576;2023-03-01T03:05:28;12.80;;;9.10;;
54929;SDS011;40833;53.238;6.576;2023-03-01T03:07:55;14.80;;;9.43;;
54929;SDS011;40833;53.238;6.576;2023-03-01T03:10:26;14.40;;;9.10;;
54929;SDS011;40833;53.238;6.576;2023-03-01T03:12:58;14.27;;;8.60;;
54929;SDS011;40833;53.238;6.576;2023-03-01T03:15:27;12.93;;;8.98;;
54929;SDS011;40833;53.238;6.576;2023-03-01T03:17:54;13.57;;;8.33;;
54929;SDS011;40833;53.238;6.576;2023-03-01T03:20:22;13.00;;;8.70;;
54929;SDS011;40833;53.238;6.576;2023-03-01T03:22:50;13.53;;;8.60;;
54929;SDS011;40833;53.238;6.576;2023-03-01T03:25:18;16.10;;;9.83;;
54929;SDS011;40833;53.238;6.576;2023-03-01T03:27:45;15.93;;;9.03;;
54929;SDS011;40833;53.238;6.576;2023-03-01T03:30:15;17.17;;;10.17;;
54929;SDS011;40833;53.238;6.576;2023-03-01T03:32:43;15.33;;;9.70;;
54929;SDS011;40833;53.238;6.576;2023-03-01T03:35:17;16.30;;;9.77;;
54929;SDS011;40833;53.238;6.576;2023-03-01T03:38:04;17.17;;;9.80;;
54929;SDS011;40833;53.238;6.576;2023-03-01T03:42:58;16.40;;;10.13;;
54929;SDS011;40833;53.238;6.576;2023-03-01T03:45:24;15.40;;;10.37;;
54929;SDS011;40833;53.238;6.576;2023-03-01T03:47:49;18.43;;;11.40;;
54929;SDS011;40833;53.238;6.576;2023-03-01T03:50:16;17.07;;;10.37;;
54929;SDS011;40833;53.238;6.576;2023-03-01T03:52:42;21.37;;;11.50;;
54929;SDS011;40833;53.238;6.576;2023-03-01T03:55:09;18.67;;;10.80;;
54929;SDS011;40833;53.238;6.576;2023-03-01T03:57:36;16.40;;;11.03;;
54929;SDS011;40833;53.238;6.576;2023-03-01T04:00:10;15.20;;;9.47;;
54929;SDS011;40833;53.238;6.576;2023-03-01T04:02:40;25.17;;;11.80;;
54929;SDS011;40833;53.238;6.576;2023-03-01T04:05:10;18.80;;;11.67;;
54929;SDS011;40833;53.238;6.576;2023-03-01T04:07:37;21.50;;;11.73;;
54929;SDS011;40833;53.238;6.576;2023-03-01T04:10:04;21.60;;;12.40;;
54929;SDS011;40833;53.238;6.576;2023-03-01T04:12:32;15.27;;;10.43;;
54929;SDS011;40833;53.238;6.576;2023-03-01T04:14:59;16.33;;;9.53;;
54929;SDS011;40833;53.238;6.576;2023-03-01T04:17:25;13.03;;;9.10;;
54929;SDS011;40833;53.238;6.576;2023-03-01T04:19:51;17.67;;;10.80;;
54929;SDS011;40833;53.238;6.576;2023-03-01T04:22:17;55.30;;;11.47;;
54929;SDS011;40833;53.238;6.576;2023-03-01T04:24:46;122.63;;;13.53;;
54929;SDS011;40833;53.238;6.576;2023-03-01T04:27:12;90.20;;;12.73;;
54929;SDS011;40833;53.238;6.576;2023-03-01T04:29:37;136.33;;;13.57;;
54929;SDS011;40833;53.238;6.576;2023-03-01T04:32:03;87.23;;;13.83;;
54929;SDS011;40833;53.238;6.576;2023-03-01T04:34:29;178.67;;;16.50;;
54929;SDS011;40833;53.238;6.576;2023-03-01T04:36:55;65.07;;;15.60;;
54929;SDS011;40833;53.238;6.576;2023-03-01T04:39:21;146.07;;;14.80;;
54929;SDS011;40833;53.238;6.576;2023-03-01T04:41:47;231.97;;;16.80;;
54929;SDS011;40833;53.238;6.576;2023-03-01T04:44:12;264.33;;;17.87;;
54929;SDS011;40833;53.238;6.576;2023-03-01T04:46:38;185.57;;;16.37;;
54929;SDS011;40833;53.238;6.576;2023-03-01T04:49:04;169.03;;;15.90;;
54929;SDS011;40833;53.238;6.576;2023-03-01T04:51:30;153.67;;;15.70;;
54929;SDS011;40833;53.238;6.576;2023-03-01T04:53:57;189.07;;;15.37;;
54929;SDS011;40833;53.238;6.576;2023-03-01T04:56:25;177.07;;;15.87;;
54929;SDS011;40833;53.238;6.576;2023-03-01T04:58:52;192.33;;;15.40;;
54929;SDS011;40833;53.238;6.576;2023-03-01T05:01:19;101.97;;;13.90;;
54929;SDS011;40833;53.238;6.576;2023-03-01T05:03:49;170.30;;;13.10;;
54929;SDS011;40833;53.238;6.576;2023-03-01T05:06:16;217.00;;;16.83;;
54929;SDS011;40833;53.238;6.576;2023-03-01T05:08:43;134.37;;;14.80;;
54929;SDS011;40833;53.238;6.576;2023-03-01T05:11:09;102.83;;;13.40;;
54929;SDS011;40833;53.238;6.576;2023-03-01T05:13:36;44.67;;;12.93;;
54929;SDS011;40833;53.238;6.576;2023-03-01T05:16:03;60.93;;;13.73;;
54929;SDS011;40833;53.238;6.576;2023-03-01T05:18:30;28.13;;;13.80;;
54929;SDS011;40833;53.238;6.576;2023-03-01T05:21:05;33.47;;;12.97;;
54929;SDS011;40833;53.238;6.576;2023-03-01T05:23:33;61.13;;;15.00;;
54929;SDS011;40833;53.238;6.576;2023-03-01T05:26:00;32.33;;;14.53;;
54929;SDS011;40833;53.238;6.576;2023-03-01T05:28:27;37.53;;;14.73;;
54929;SDS011;40833;53.238;6.576;2023-03-01T05:30:53;32.37;;;14.87;;
54929;SDS011;40833;53.238;6.576;2023-03-01T05:33:20;26.43;;;13.20;;
54929;SDS011;40833;53.238;6.576;2023-03-01T05:35:47;26.90;;;14.57;;
54929;SDS011;40833;53.238;6.576;2023-03-01T05:38:14;24.90;;;13.00;;
54929;SDS011;40833;53.238;6.576;2023-03-01T05:40:44;25.03;;;13.23;;
54929;SDS011;40833;53.238;6.576;2023-03-01T05:43:12;23.85;;;13.05;;
54929;SDS011;40833;53.238;6.576;2023-03-01T05:45:40;23.77;;;12.13;;
54929;SDS011;40833;53.238;6.576;2023-03-01T05:48:06;21.90;;;12.20;;
54929;SDS011;40833;53.238;6.576;2023-03-01T05:50:35;26.07;;;13.47;;
54929;SDS011;40833;53.238;6.576;2023-03-01T05:53:13;22.77;;;11.60;;
54929;SDS011;40833;53.238;6.576;2023-03-01T05:55:40;22.47;;;11.83;;
54929;SDS011;40833;53.238;6.576;2023-03-01T05:58:10;20.13;;;11.50;;
54929;SDS011;40833;53.238;6.576;2023-03-01T06:00:39;23.05;;;11.80;;
54929;SDS011;40833;53.238;6.576;2023-03-01T06:03:05;22.77;;;12.53;;
54929;SDS011;40833;53.238;6.576;2023-03-01T06:05:30;20.93;;;12.10;;
54929;SDS011;40833;53.238;6.576;2023-03-01T06:08:00;21.13;;;12.13;;
54929;SDS011;40833;53.238;6.576;2023-03-01T06:10:26;19.53;;;12.00;;
54929;SDS011;40833;53.238;6.576;2023-03-01T06:12:53;20.70;;;11.83;;
54929;SDS011;40833;53.238;6.576;2023-03-01T06:15:18;20.97;;;12.63;;
54929;SDS011;40833;53.238;6.576;2023-03-01T06:17:45;24.40;;;13.23;;
54929;SDS011;40833;53.238;6.576;2023-03-01T06:20:12;20.30;;;11.63;;
54929;SDS011;40833;53.238;6.576;2023-03-01T06:22:40;21.83;;;12.23;;
54929;SDS011;40833;53.238;6.576;2023-03-01T06:25:06;22.40;;;12.37;;
54929;SDS011;40833;53.238;6.576;2023-03-01T06:27:33;22.70;;;12.47;;
54929;SDS011;40833;53.238;6.576;2023-03-01T06:29:59;20.20;;;11.87;;
54929;SDS011;40833;53.238;6.576;2023-03-01T06:32:24;24.37;;;12.50;;
54929;SDS011;40833;53.238;6.576;2023-03-01T06:34:50;22.37;;;13.00;;
54929;SDS011;40833;53.238;6.576;2023-03-01T06:37:16;24.90;;;13.27;;
54929;SDS011;40833;53.238;6.576;2023-03-01T06:39:42;26.00;;;14.37;;
54929;SDS011;40833;53.238;6.576;2023-03-01T06:42:08;24.77;;;13.80;;
54929;SDS011;40833;53.238;6.576;2023-03-01T06:44:37;23.63;;;13.97;;
54929;SDS011;40833;53.238;6.576;2023-03-01T06:47:03;27.87;;;15.07;;
54929;SDS011;40833;53.238;6.576;2023-03-01T06:49:29;25.33;;;14.63;;
54929;SDS011;40833;53.238;6.576;2023-03-01T06:51:55;28.60;;;16.07;;
54929;SDS011;40833;53.238;6.576;2023-03-01T06:54:21;27.20;;;14.83;;
54929;SDS011;40833;53.238;6.576;2023-03-01T06:56:47;26.10;;;14.93;;
54929;SDS011;40833;53.238;6.576;2023-03-01T06:59:14;27.37;;;15.67;;
54929;SDS011;40833;53.238;6.576;2023-03-01T07:01:40;28.53;;;15.37;;
54929;SDS011;40833;53.238;6.576;2023-03-01T07:04:06;26.20;;;14.90;;
54929;SDS011;40833;53.238;6.576;2023-03-01T07:06:32;28.93;;;14.93;;
54929;SDS011;40833;53.238;6.576;2023-03-01T07:08:58;32.83;;;16.57;;
54929;SDS011;40833;53.238;6.576;2023-03-01T07:11:23;27.27;;;15.50;;
54929;SDS011;40833;53.238;6.576;2023-03-01T07:13:49;30.57;;;15.37;;
54929;SDS011;40833;53.238;6.576;2023-03-01T07:16:15;27.17;;;16.07;;
54929;SDS011;40833;53.238;6.576;2023-03-01T07:18:40;31.53;;;17.00;;
54929;SDS011;40833;53.238;6.576;2023-03-01T07:21:07;28.40;;;15.93;;
54929;SDS011;40833;53.238;6.576;2023-03-01T07:23:34;29.07;;;16.17;;
54929;SDS011;40833;53.238;6.576;2023-03-01T07:26:00;29.60;;;16.03;;
54929;SDS011;40833;53.238;6.576;2023-03-01T07:28:26;30.93;;;15.97;;
54929;SDS011;40833;53.238;6.576;2023-03-01T07:30:52;26.50;;;15.10;;
54929;SDS011;40833;53.238;6.576;2023-03-01T07:33:18;22.83;;;15.10;;
54929;SDS011;40833;53.238;6.576;2023-03-01T07:35:44;24.17;;;14.60;;
54929;SDS011;40833;53.238;6.576;2023-03-01T07:38:10;24.67;;;14.83;;
54929;SDS011;40833;53.238;6.576;2023-03-01T07:40:35;22.77;;;14.50;;
54929;SDS011;40833;53.238;6.576;2023-03-01T07:43:01;26.87;;;16.23;;
54929;SDS011;40833;53.238;6.576;2023-03-01T07:45:27;25.50;;;16.27;;
54929;SDS011;40833;53.238;6.576;2023-03-01T07:47:54;25.33;;;16.07;;
54929;SDS011;40833;53.238;6.576;2023-03-01T07:50:20;32.07;;;17.70;;
54929;SDS011;40833;53.238;6.576;2023-03-01T07:52:47;26.10;;;17.27;;
54929;SDS011;40833;53.238;6.576;2023-03-01T07:55:14;31.67;;;18.70;;
54929;SDS011;40833;53.238;6.576;2023-03-01T07:57:41;31.60;;;19.50;;
54929;SDS011;40833;53.238;6.576;2023-03-01T08:00:07;31.20;;;18.90;;
54929;SDS011;40833;53.238;6.576;2023-03-01T08:02:35;32.00;;;19.30;;
54929;SDS011;40833;53.238;6.576;2023-03-01T08:05:00;42.27;;;24.63;;
54929;SDS011;40833;53.238;6.576;2023-03-01T08:07:26;47.13;;;26.57;;
54929;SDS011;40833;53.238;6.576;2023-03-01T08:09:52;48.03;;;28.97;;
54929;SDS011;40833;53.238;6.576;2023-03-01T08:12:17;46.23;;;28.77;;
54929;SDS011;40833;53.238;6.576;2023-03-01T08:14:43;55.00;;;32.20;;
54929;SDS011;40833;53.238;6.576;2023-03-01T08:17:09;50.03;;;30.70;;
54929;SDS011;40833;53.238;6.576;2023-03-01T08:19:34;58.20;;;30.43;;
54929;SDS011;40833;53.238;6.576;2023-03-01T08:22:03;58.23;;;31.27;;
54929;SDS011;40833;53.238;6.576;2023-03-01T08:24:29;53.47;;;30.73;;
54929;SDS011;40833;53.238;6.576;2023-03-01T08:26:55;47.07;;;26.93;;
54929;SDS011;40833;53.238;6.576;2023-03-01T08:29:21;48.17;;;28.63;;
54929;SDS011;40833;53.238;6.576;2023-03-01T08:31:49;47.07;;;27.93;;
54929;SDS011;40833;53.238;6.576;2023-03-01T08:34:16;55.90;;;29.23;;
54929;SDS011;40833;53.238;6.576;2023-03-01T08:36:44;50.60;;;27.87;;
54929;SDS011;40833;53.238;6.576;2023-03-01T08:39:12;49.67;;;28.13;;
54929;SDS011;40833;53.238;6.576;2023-03-01T08:41:39;51.57;;;27.83;;
54929;SDS011;40833;53.238;6.576;2023-03-01T08:44:05;55.27;;;28.30;;
54929;SDS011;40833;53.238;6.576;2023-03-01T08:46:32;54.37;;;28.83;;
54929;SDS011;40833;53.238;6.576;2023-03-01T08:49:03;54.93;;;30.90;;
54929;SDS011;40833;53.238;6.576;2023-03-01T08:51:30;59.47;;;31.87;;
54929;SDS011;40833;53.238;6.576;2023-03-01T08:54:01;72.90;;;34.20;;
54929;SDS011;40833;53.238;6.576;2023-03-01T08:56:28;76.47;;;34.07;;
54929;SDS011;40833;53.238;6.576;2023-03-01T08:58:54;76.83;;;34.37;;
54929;SDS011;40833;53.238;6.576;2023-03-01T09:01:19;74.03;;;34.20;;
54929;SDS011;40833;53.238;6.576;2023-03-01T09:03:45;61.67;;;32.80;;
54929;SDS011;40833;53.238;6.576;2023-03-01T09:06:11;68.70;;;33.97;;
54929;SDS011;40833;53.238;6.576;2023-03-01T09:08:39;78.10;;;33.50;;
54929;SDS011;40833;53.238;6.576;2023-03-01T09:11:10;55.90;;;31.33;;
54929;SDS011;40833;53.238;6.576;2023-03-01T09:13:37;57.73;;;32.30;;
54929;SDS011;40833;53.238;6.576;2023-03-01T09:16:04;62.40;;;31.43;;
54929;SDS011;40833;53.238;6.576;2023-03-01T09:18:31;64.23;;;33.73;;
54929;SDS011;40833;53.238;6.576;2023-03-01T09:21:05;56.60;;;31.77;;
54929;SDS011;40833;53.238;6.576;2023-03-01T09:23:35;59.53;;;30.73;;
54929;SDS011;40833;53.238;6.576;2023-03-01T09:26:04;52.67;;;29.83;;
54929;SDS011;40833;53.238;6.576;2023-03-01T09:28:31;52.53;;;30.00;;
54929;SDS011;40833;53.238;6.576;2023-03-01T09:30:59;52.97;;;30.90;;
54929;SDS011;40833;53.238;6.576;2023-03-01T09:33:26;50.43;;;29.77;;
54929;SDS011;40833;53.238;6.576;2023-03-01T09:35:59;57.40;;;31.47;;
54929;SDS011;40833;53.238;6.576;2023-03-01T09:38:27;50.47;;;28.97;;
54929;SDS011;40833;53.238;6.576;2023-03-01T09:40:53;46.77;;;27.63;;
54929;SDS011;40833;53.238;6.576;2023-03-01T09:43:21;42.40;;;25.87;;
54929;SDS011;40833;53.238;6.576;2023-03-01T09:45:53;49.10;;;27.30;;
54929;SDS011;40833;53.238;6.576;2023-03-01T09:48:21;41.10;;;25.30;;
54929;SDS011;40833;53.238;6.576;2023-03-01T09:50:51;53.13;;;27.70;;
54929;SDS011;40833;53.238;6.576;2023-03-01T09:53:25;39.93;;;23.37;;
54929;SDS011;40833;53.238;6.576;2023-03-01T09:56:02;36.27;;;23.03;;
54929;SDS011;40833;53.238;6.576;2023-03-01T09:58:36;32.13;;;19.43;;
54929;SDS011;40833;53.238;6.576;2023-03-01T10:06:31;33.63;;;21.00;;
54929;SDS011;40833;53.238;6.576;2023-03-01T10:08:58;36.07;;;22.80;;
54929;SDS011;40833;53.238;6.576;2023-03-01T10:11:35;38.53;;;21.77;;
54929;SDS011;40833;53.238;6.576;2023-03-01T10:16:54;30.70;;;20.30;;
54929;SDS011;40833;53.238;6.576;2023-03-01T10:19:36;32.22;;;21.73;;
54929;SDS011;40833;53.238;6.576;2023-03-01T10:24:48;32.63;;;20.63;;
54929;SDS011;40833;53.238;6.576;2023-03-01T10:27:25;34.27;;;21.23;;
54929;SDS011;40833;53.238;6.576;2023-03-01T10:30:06;32.87;;;21.50;;
54929;SDS011;40833;53.238;6.576;2023-03-01T10:32:41;36.65;;;20.75;;
54929;SDS011;40833;53.238;6.576;2023-03-01T10:35:15;34.93;;;21.90;;
54929;SDS011;40833;53.238;6.576;2023-03-01T10:40:29;31.33;;;21.07;;
54929;SDS011;40833;53.238;6.576;2023-03-01T10:43:01;27.50;;;19.00;;
54929;SDS011;40833;53.238;6.576;2023-03-01T10:48:14;27.87;;;19.13;;
54929;SDS011;40833;53.238;6.576;2023-03-01T10:53:24;28.75;;;18.35;;
54929;SDS011;40833;53.238;6.576;2023-03-01T10:59:05;26.73;;;17.60;;
54929;SDS011;40833;53.238;6.576;2023-03-01T11:04:34;28.43;;;18.07;;
54929;SDS011;40833;53.238;6.576;2023-03-01T11:07:01;26.53;;;16.70;;
54929;SDS011;40833;53.238;6.576;2023-03-01T11:09:30;25.47;;;16.33;;
54929;SDS011;40833;53.238;6.576;2023-03-01T11:12:03;22.60;;;16.40;;
54929;SDS011;40833;53.238;6.576;2023-03-01T11:14:38;28.00;;;17.37;;
54929;SDS011;40833;53.238;6.576;2023-03-01T11:19:36;24.17;;;16.80;;
54929;SDS011;40833;53.238;6.576;2023-03-01T11:22:03;24.30;;;15.50;;
54929;SDS011;40833;53.238;6.576;2023-03-01T11:24:43;21.93;;;16.93;;
54929;SDS011;40833;53.238;6.576;2023-03-01T11:27:16;23.60;;;16.23;;
54929;SDS011;40833;53.238;6.576;2023-03-01T11:29:51;18.87;;;13.73;;
54929;SDS011;40833;53.238;6.576;2023-03-01T11:32:18;18.67;;;14.27;;
54929;SDS011;40833;53.238;6.576;2023-03-01T11:34:48;18.33;;;14.90;;
54929;SDS011;40833;53.238;6.576;2023-03-01T11:37:18;18.40;;;14.57;;
54929;SDS011;40833;53.238;6.576;2023-03-01T11:40:10;18.70;;;14.17;;
54929;SDS011;40833;53.238;6.576;2023-03-01T11:42:51;16.60;;;12.13;;
54929;SDS011;40833;53.238;6.576;2023-03-01T11:45:37;18.77;;;13.07;;
54929;SDS011;40833;53.238;6.576;2023-03-01T11:48:18;16.60;;;12.07;;
54929;SDS011;40833;53.238;6.576;2023-03-01T11:50:50;22.23;;;14.07;;
54929;SDS011;40833;53.238;6.576;2023-03-01T11:56:09;16.57;;;12.00;;
54929;SDS011;40833;53.238;6.576;2023-03-01T12:01:48;21.03;;;14.10;;
54929;SDS011;40833;53.238;6.576;2023-03-01T12:04:48;16.40;;;11.93;;
54929;SDS011;40833;53.238;6.576;2023-03-01T12:10:19;17.33;;;12.27;;
54929;SDS011;40833;53.238;6.576;2023-03-01T12:13:15;19.33;;;13.83;;
54929;SDS011;40833;53.238;6.576;2023-03-01T12:15:51;19.97;;;13.20;;
54929;SDS011;40833;53.238;6.576;2023-03-01T12:18:56;19.40;;;13.40;;
54929;SDS011;40833;53.238;6.576;2023-03-01T12:24:35;22.77;;;15.43;;
54929;SDS011;40833;53.238;6.576;2023-03-01T12:33:00;20.13;;;13.00;;
54929;SDS011;40833;53.238;6.576;2023-03-01T12:41:04;15.27;;;10.73;;
54929;SDS011;40833;53.238;6.576;2023-03-01T12:44:01;13.90;;;10.93;;
54929;SDS011;40833;53.238;6.576;2023-03-01T12:51:35;13.85;;;11.13;;
54929;SDS011;40833;53.238;6.576;2023-03-01T12:54:16;16.33;;;12.03;;
54929;SDS011;40833;53.238;6.576;2023-03-01T13:02:41;17.03;;;11.60;;
54929;SDS011;40833;53.238;6.576;2023-03-01T13:05:25;14.20;;;12.20;;
54929;SDS011;40833;53.238;6.576;2023-03-01T13:13:08;14.27;;;10.23;;
54929;SDS011;40833;53.238;6.576;2023-03-01T13:15:38;13.33;;;10.67;;
54929;SDS011;40833;53.238;6.576;2023-03-01T13:20:48;19.25;;;11.00;;
54929;SDS011;40833;53.238;6.576;2023-03-01T13:26:03;15.80;;;11.88;;
54929;SDS011;40833;53.238;6.576;2023-03-01T13:33:47;18.70;;;12.37;;
54929;SDS011;40833;53.238;6.576;2023-03-01T13:41:57;13.70;;;11.20;;
54929;SDS011;40833;53.238;6.576;2023-03-01T13:49:44;17.17;;;11.30;;
54929;SDS011;40833;53.238;6.576;2023-03-01T13:52:35;13.37;;;10.80;;
54929;SDS011;40833;53.238;6.576;2023-03-01T13:57:40;13.67;;;9.53;;
54929;SDS011;40833;53.238;6.576;2023-03-01T14:05:31;14.20;;;9.23;;
54929;SDS011;40833;53.238;6.576;2023-03-01T14:07:58;13.13;;;8.80;;
54929;SDS011;40833;53.238;6.576;2023-03-01T14:10:25;10.70;;;8.93;;
54929;SDS011;40833;53.238;6.576;2023-03-01T14:13:17;12.80;;;9.23;;
54929;SDS011;40833;53.238;6.576;2023-03-01T14:16:27;13.40;;;8.87;;
54929;SDS011;40833;53.238;6.576;2023-03-01T14:18:39;11.60;;;8.93;;
54929;SDS011;40833;53.238;6.576;2023-03-01T14:21:07;16.47;;;9.73;;
54929;SDS011;40833;53.238;6.576;2023-03-01T14:23:33;14.10;;;9.50;;
54929;SDS011;40833;53.238;6.576;2023-03-01T14:26:00;13.13;;;9.50;;
54929;SDS011;40833;53.238;6.576;2023-03-01T14:28:30;11.27;;;9.50;;
54929;SDS011;40833;53.238;6.576;2023-03-01T14:31:02;12.03;;;9.60;;
54929;SDS011;40833;53.238;6.576;2023-03-01T14:33:54;13.77;;;10.40;;
54929;SDS011;40833;53.238;6.576;2023-03-01T14:36:26;13.07;;;9.60;;
54929;SDS011;40833;53.238;6.576;2023-03-01T14:38:53;12.97;;;9.93;;
54929;SDS011;40833;53.238;6.576;2023-03-01T14:41:22;12.87;;;10.33;;
54929;SDS011;40833;53.238;6.576;2023-03-01T14:43:53;10.80;;;9.70;;
54929;SDS011;40833;53.238;6.576;2023-03-01T14:46:25;11.73;;;9.73;;
54929;SDS011;40833;53.238;6.576;2023-03-01T14:49:02;12.55;;;9.40;;
54929;SDS011;40833;53.238;6.576;2023-03-01T14:51:37;13.43;;;9.73;;
54929;SDS011;40833;53.238;6.576;2023-03-01T14:54:05;12.87;;;9.07;;
54929;SDS011;40833;53.238;6.576;2023-03-01T14:57:00;13.53;;;10.47;;
54929;SDS011;40833;53.238;6.576;2023-03-01T14:59:26;12.00;;;10.33;;
54929;SDS011;40833;53.238;6.576;2023-03-01T15:01:53;16.07;;;9.77;;
54929;SDS011;40833;53.238;6.576;2023-03-01T15:04:22;14.63;;;10.10;;
54929;SDS011;40833;53.238;6.576;2023-03-01T15:06:55;15.13;;;10.13;;
54929;SDS011;40833;53.238;6.576;2023-03-01T15:09:29;15.80;;;10.30;;
54929;SDS011;40833;53.238;6.576;2023-03-01T15:11:57;12.77;;;10.23;;
54929;SDS011;40833;53.238;6.576;2023-03-01T15:14:26;14.67;;;10.57;;
54929;SDS011;40833;53.238;6.576;2023-03-01T15:16:54;13.43;;;10.27;;
54929;SDS011;40833;53.238;6.576;2023-03-01T15:19:20;15.40;;;11.00;;
54929;SDS011;40833;53.238;6.576;2023-03-01T15:21:50;12.27;;;10.53;;
54929;SDS011;40833;53.238;6.576;2023-03-01T15:24:17;12.27;;;10.10;;
54929;SDS011;40833;53.238;6.576;2023-03-01T15:26:51;16.53;;;10.10;;
54929;SDS011;40833;53.238;6.576;2023-03-01T15:29:24;12.50;;;10.07;;
54929;SDS011;40833;53.238;6.576;2023-03-01T15:32:06;14.17;;;10.70;;
54929;SDS011;40833;53.238;6.576;2023-03-01T15:34:55;15.57;;;10.37;;
54929;SDS011;40833;53.238;6.576;2023-03-01T15:37:39;12.90;;;9.77;;
54929;SDS011;40833;53.238;6.576;2023-03-01T15:42:45;9.50;;;8.60;;
54929;SDS011;40833;53.238;6.576;2023-03-01T15:47:43;16.63;;;9.47;;
54929;SDS011;40833;53.238;6.576;2023-03-01T15:50:24;15.13;;;9.52;;
54929;SDS011;40833;53.238;6.576;2023-03-01T15:52:52;10.80;;;9.03;;
54929;SDS011;40833;53.238;6.576;2023-03-01T15:55:20;13.30;;;10.20;;
54929;SDS011;40833;53.238;6.576;2023-03-01T15:57:46;11.77;;;9.30;;
54929;SDS011;40833;53.238;6.576;2023-03-01T16:00:13;11.27;;;10.07;;
54929;SDS011;40833;53.238;6.576;2023-03-01T16:02:40;13.53;;;9.97;;
54929;SDS011;40833;53.238;6.576;2023-03-01T16:05:18;13.47;;;10.27;;
54929;SDS011;40833;53.238;6.576;2023-03-01T16:07:49;11.25;;;10.10;;
54929;SDS011;40833;53.238;6.576;2023-03-01T16:10:15;14.43;;;10.77;;
54929;SDS011;40833;53.238;6.576;2023-03-01T16:12:41;15.27;;;11.07;;
54929;SDS011;40833;53.238;6.576;2023-03-01T16:15:12;15.00;;;11.23;;
54929;SDS011;40833;53.238;6.576;2023-03-01T16:17:44;15.33;;;11.77;;
54929;SDS011;40833;53.238;6.576;2023-03-01T16:20:10;17.73;;;12.10;;
54929;SDS011;40833;53.238;6.576;2023-03-01T16:22:36;14.83;;;11.80;;
54929;SDS011;40833;53.238;6.576;2023-03-01T16:25:02;16.30;;;13.17;;
54929;SDS011;40833;53.238;6.576;2023-03-01T16:27:28;18.77;;;13.27;;
54929;SDS011;40833;53.238;6.576;2023-03-01T16:29:54;17.97;;;13.37;;